createdAt,value
2023-05-15T00:00:15.849Z,85.08
2023-05-15T00:02:46.160Z,84.95
2023-05-15T00:05:18.574Z,85.29
2023-05-15T00:07:49.825Z,85.62
2023-05-15T00:10:19.425Z,84.96
2023-05-15T00:12:50.017Z,85.27
2023-05-15T00:15:24.825Z,84.80
2023-05-15T00:17:56.616Z,85.27
2023-05-15T00:20:33.313Z,85.45
2023-05-15T00:23:05.473Z,85.29
2023-05-15T00:25:34.908Z,85.33
2023-05-15T00:28:09.609Z,85.14
2023-05-15T00:30:39.911Z,85.03
2023-05-15T00:33:11.074Z,85.29
2023-05-15T00:35:42.414Z,85.06
2023-05-15T00:38:14.427Z,85.27
2023-05-15T00:41:07.312Z,84.86
2023-05-15T00:44:06.832Z,85.13
2023-05-15T00:47:01.687Z,85.31
2023-05-15T00:49:59.756Z,85.50
2023-05-15T00:53:00.537Z,85.77
2023-05-15T00:55:54.302Z,85.51
2023-05-15T00:58:52.337Z,85.55
2023-05-15T01:01:49.351Z,85.35
2023-05-15T01:04:43.419Z,85.35
2023-05-15T01:07:42.954Z,85.06
2023-05-15T01:10:28.534Z,85.42
2023-05-15T01:13:15.331Z,84.81
2023-05-15T01:16:11.377Z,84.97
2023-05-15T01:18:49.218Z,85.50
2023-05-15T01:22:30.692Z,85.19
2023-05-15T01:25:54.851Z,85.25
2023-05-15T01:28:38.040Z,85.34
2023-05-15T01:31:22.048Z,85.19
2023-05-15T01:34:01.950Z,85.44
2023-05-15T01:36:40.164Z,85.26
2023-05-15T01:39:17.442Z,85.37
2023-05-15T01:42:14.926Z,85.09
2023-05-15T01:45:35.091Z,85.15
2023-05-15T01:48:12.607Z,85.56
2023-05-15T01:50:51.202Z,85.68
2023-05-15T01:53:30.282Z,85.58
2023-05-15T01:56:09.567Z,85.39
2023-05-15T01:58:40.169Z,85.69
2023-05-15T02:01:31.618Z,85.68
2023-05-15T02:04:04.991Z,85.57
2023-05-15T02:06:58.697Z,85.64
2023-05-15T02:10:04.101Z,85.65
2023-05-15T02:13:06.014Z,85.54
2023-05-15T02:15:40.605Z,86.09
2023-05-15T02:18:43.531Z,85.73
2023-05-15T02:21:26.158Z,85.67
2023-05-15T02:24:16.835Z,85.63
2023-05-15T02:27:31.555Z,86.10
2023-05-15T02:30:38.454Z,85.23
2023-05-15T02:33:42.023Z,85.33
2023-05-15T02:36:32.744Z,85.51
2023-05-15T02:39:18.730Z,85.59
2023-05-15T02:42:08.787Z,85.50
2023-05-15T02:44:46.839Z,85.73
2023-05-15T02:47:26.737Z,86.22
2023-05-15T02:50:12.160Z,86.01
2023-05-15T02:52:41.696Z,85.62
2023-05-15T02:55:15.913Z,85.44
2023-05-15T02:57:46.428Z,85.49
2023-05-15T03:00:18.735Z,85.52
2023-05-15T03:02:51.404Z,85.35
2023-05-15T03:05:26.902Z,85.57
2023-05-15T03:08:00.586Z,85.43
2023-05-15T03:10:38.611Z,85.49
2023-05-15T03:13:09.435Z,85.90
2023-05-15T03:15:41.247Z,85.44
2023-05-15T03:18:11.783Z,85.79
2023-05-15T03:20:44.186Z,86.00
2023-05-15T03:23:17.087Z,85.74
2023-05-15T03:25:49.846Z,85.60
2023-05-15T03:28:37.803Z,85.58
2023-05-15T03:31:15.522Z,85.60
2023-05-15T03:34:03.103Z,85.96
2023-05-15T03:37:04.993Z,85.90
2023-05-15T03:40:03.439Z,85.97
2023-05-15T03:42:54.461Z,85.75
2023-05-15T03:46:07.179Z,85.55
2023-05-15T03:48:59.627Z,85.74
2023-05-15T03:52:10.782Z,85.78
2023-05-15T03:55:09.867Z,85.49
2023-05-15T03:58:03.278Z,85.39
2023-05-15T04:04:06.896Z,85.55
2023-05-15T04:07:03.402Z,85.83
2023-05-15T04:13:22.356Z,85.47
2023-05-15T04:15:55.845Z,85.80
2023-05-15T04:18:28.146Z,85.74
2023-05-15T04:21:00.317Z,86.18
2023-05-15T04:23:34.907Z,86.07
2023-05-15T04:26:08.197Z,86.46
2023-05-15T04:28:40.269Z,86.32
2023-05-15T04:31:13.659Z,86.46
2023-05-15T04:33:43.256Z,85.97
2023-05-15T04:36:13.338Z,86.02
2023-05-15T04:38:43.192Z,85.72
2023-05-15T04:41:17.204Z,85.96
2023-05-15T04:43:46.980Z,85.94
2023-05-15T04:46:23.723Z,85.90
2023-05-15T04:48:56.755Z,85.82
2023-05-15T04:51:36.638Z,85.63
2023-05-15T04:54:08.218Z,85.96
2023-05-15T04:56:44.352Z,85.58
2023-05-15T04:59:16.328Z,85.49
2023-05-15T05:01:46.457Z,85.04
2023-05-15T05:04:21.776Z,85.45
2023-05-15T05:06:53.705Z,85.52
2023-05-15T05:09:45.470Z,85.49
2023-05-15T05:12:17.213Z,85.43
2023-05-15T05:14:47.012Z,85.37
2023-05-15T05:17:17.261Z,85.25
2023-05-15T05:19:48.030Z,85.06
2023-05-15T05:22:18.461Z,84.76
2023-05-15T05:24:59.992Z,85.10
2023-05-15T05:27:33.376Z,84.67
2023-05-15T05:30:03.542Z,84.32
2023-05-15T05:32:33.553Z,84.28
2023-05-15T05:35:04.759Z,83.93
2023-05-15T05:37:34.661Z,83.99
2023-05-15T05:40:18.047Z,84.07
2023-05-15T05:42:50.222Z,83.46
2023-05-15T05:45:22.049Z,83.31
2023-05-15T05:47:55.852Z,82.93
2023-05-15T05:50:27.177Z,82.84
2023-05-15T05:52:59.680Z,82.65
2023-05-15T05:55:32.359Z,82.11
2023-05-15T05:58:14.578Z,82.05
2023-05-15T06:00:48.479Z,82.15
2023-05-15T06:03:18.681Z,81.63
2023-05-15T06:05:49.002Z,81.22
2023-05-15T06:08:27.937Z,81.88
2023-05-15T06:11:17.380Z,81.02
2023-05-15T06:13:48.314Z,81.06
2023-05-15T06:16:19.021Z,81.01
2023-05-15T06:18:51.003Z,80.85
2023-05-15T06:21:23.100Z,80.04
2023-05-15T06:23:56.875Z,79.97
2023-05-15T06:26:30.284Z,79.88
2023-05-15T06:29:03.877Z,79.18
2023-05-15T06:31:34.602Z,78.71
2023-05-15T06:34:18.245Z,78.93
2023-05-15T06:36:48.556Z,78.31
2023-05-15T06:39:21.290Z,78.39
2023-05-15T06:41:50.186Z,78.15
2023-05-15T06:44:29.997Z,78.01
2023-05-15T06:47:01.936Z,77.16
2023-05-15T06:49:34.638Z,76.53
2023-05-15T06:52:06.720Z,76.39
2023-05-15T06:54:43.999Z,76.62
2023-05-15T06:57:17.943Z,76.53
2023-05-15T06:59:48.948Z,76.23
2023-05-15T07:02:21.856Z,76.12
2023-05-15T07:04:54.810Z,76.16
2023-05-15T07:07:28.478Z,76.25
2023-05-15T07:09:59.777Z,75.20
2023-05-15T07:12:41.787Z,75.51
2023-05-15T07:15:18.892Z,75.54
2023-05-15T07:17:50.201Z,75.22
2023-05-15T07:20:23.810Z,74.67
2023-05-15T07:23:00.722Z,74.50
2023-05-15T07:25:34.774Z,73.93
2023-05-15T07:28:04.128Z,73.46
2023-05-15T07:30:44.718Z,72.52
2023-05-15T07:33:16.530Z,72.84
2023-05-15T07:35:48.318Z,71.65
2023-05-15T07:38:18.917Z,71.22
2023-05-15T07:40:49.339Z,71.03
2023-05-15T07:43:23.294Z,70.84
2023-05-15T07:45:54.985Z,69.88
2023-05-15T07:48:36.488Z,69.81
2023-05-15T07:51:08.058Z,69.01
2023-05-15T07:53:46.281Z,68.61
2023-05-15T07:56:19.241Z,68.46
2023-05-15T07:59:02.026Z,67.99
2023-05-15T08:01:38.645Z,67.17
2023-05-15T08:04:20.889Z,67.23
2023-05-15T08:06:53.936Z,66.67
2023-05-15T08:09:33.626Z,66.68
2023-05-15T08:12:25.904Z,66.05
2023-05-15T08:14:57.862Z,65.13
2023-05-15T08:17:30.230Z,64.42
2023-05-15T08:20:02.973Z,63.88
2023-05-15T08:22:34.624Z,64.00
2023-05-15T08:25:07.504Z,64.09
2023-05-15T08:27:38.169Z,63.60
2023-05-15T08:30:13.216Z,64.30
2023-05-15T08:32:49.528Z,64.04
2023-05-15T08:35:30.530Z,63.91
2023-05-15T08:38:04.145Z,63.38
2023-05-15T08:40:39.232Z,63.07
2023-05-15T08:43:22.114Z,62.37
2023-05-15T08:45:58.019Z,61.86
2023-05-15T08:48:37.466Z,61.50
2023-05-15T08:51:12.381Z,60.95
2023-05-15T08:53:48.712Z,60.88
2023-05-15T08:56:22.693Z,60.82
2023-05-15T08:58:54.922Z,60.42
2023-05-15T09:01:27.511Z,60.19
2023-05-15T09:04:01.386Z,59.94
2023-05-15T09:06:30.721Z,59.67
2023-05-15T09:09:04.350Z,59.72
2023-05-15T09:11:38.962Z,59.07
2023-05-15T09:14:09.480Z,59.06
2023-05-15T09:16:47.257Z,59.29
2023-05-15T09:19:24.050Z,59.54
2023-05-15T09:21:53.759Z,58.99
2023-05-15T09:24:38.429Z,58.53
2023-05-15T09:27:11.850Z,57.89
2023-05-15T09:29:44.710Z,57.29
2023-05-15T09:32:16.565Z,56.36
2023-05-15T09:34:49.179Z,56.09
2023-05-15T09:37:34.408Z,56.06
2023-05-15T09:40:11.791Z,55.87
2023-05-15T09:42:54.007Z,55.73
2023-05-15T09:45:35.915Z,55.15
2023-05-15T09:48:13.126Z,54.65
2023-05-15T09:50:47.392Z,54.31
2023-05-15T09:53:21.503Z,54.29
2023-05-15T09:55:52.683Z,54.34
2023-05-15T09:58:33.144Z,54.19
2023-05-15T10:01:05.027Z,53.95
2023-05-15T10:03:35.046Z,54.03
2023-05-15T10:06:09.981Z,52.90
2023-05-15T10:08:43.413Z,53.18
2023-05-15T10:11:17.156Z,53.45
2023-05-15T10:13:49.156Z,53.06
2023-05-15T10:16:26.021Z,52.08
2023-05-15T10:18:58.803Z,51.90
2023-05-15T10:21:35.167Z,52.93
2023-05-15T10:24:07.905Z,52.50
2023-05-15T10:27:00.408Z,52.44
2023-05-15T10:29:33.292Z,51.62
2023-05-15T10:32:15.599Z,50.73
2023-05-15T10:34:46.632Z,50.14
2023-05-15T10:37:28.968Z,50.52
2023-05-15T10:40:08.182Z,50.91
2023-05-15T10:42:41.352Z,50.59
2023-05-15T10:45:13.181Z,50.62
2023-05-15T10:47:52.791Z,50.75
2023-05-15T10:50:27.652Z,50.43
2023-05-15T10:53:02.618Z,49.99
2023-05-15T10:55:44.871Z,49.93
2023-05-15T10:58:15.920Z,49.58
2023-05-15T11:00:47.658Z,49.37
2023-05-15T11:03:34.872Z,49.22
2023-05-15T11:06:14.412Z,49.78
2023-05-15T11:08:49.180Z,49.34
2023-05-15T11:11:58.234Z,49.53
2023-05-15T11:14:37.185Z,49.47
2023-05-15T11:17:16.560Z,49.36
2023-05-15T11:20:04.356Z,49.39
2023-05-15T11:22:37.626Z,48.29
2023-05-15T11:25:14.752Z,48.28
2023-05-15T11:27:55.066Z,47.96
2023-05-15T11:30:38.887Z,47.49
2023-05-15T11:33:14.079Z,47.35
2023-05-15T11:35:48.828Z,46.78
2023-05-15T11:38:23.337Z,46.43
2023-05-15T11:41:03.661Z,46.56
2023-05-15T11:43:35.427Z,46.52
2023-05-15T11:46:09.615Z,46.92
2023-05-15T11:48:41.800Z,45.31
2023-05-15T11:51:27.724Z,45.31
2023-05-15T11:54:03.481Z,44.45
2023-05-15T11:56:35.195Z,44.47
2023-05-15T11:59:05.970Z,44.60
2023-05-15T12:01:50.128Z,44.42
2023-05-15T12:04:26.761Z,44.38
2023-05-15T12:07:03.297Z,44.68
2023-05-15T12:09:35.568Z,43.85
2023-05-15T12:12:09.944Z,44.13
2023-05-15T12:14:52.723Z,43.91
2023-05-15T12:17:26.177Z,43.01
2023-05-15T12:20:00.874Z,42.52
2023-05-15T12:22:31.040Z,42.06
2023-05-15T12:25:04.258Z,41.63
2023-05-15T12:27:37.844Z,41.62
2023-05-15T12:30:11.236Z,40.57
2023-05-15T12:32:47.475Z,40.38
2023-05-15T12:35:25.568Z,41.20
2023-05-15T12:38:06.885Z,40.24
2023-05-15T12:40:38.279Z,39.98
2023-05-15T12:43:10.251Z,39.20
2023-05-15T12:45:44.900Z,39.18
2023-05-15T12:48:17.264Z,38.89
2023-05-15T12:51:06.516Z,37.61
2023-05-15T12:53:40.256Z,37.58
2023-05-15T12:56:12.829Z,37.92
2023-05-15T12:58:43.139Z,37.63
2023-05-15T13:01:25.480Z,37.28
2023-05-15T13:03:56.823Z,37.05
2023-05-15T13:06:45.729Z,35.87
2023-05-15T13:09:29.374Z,35.69
2023-05-15T13:12:00.712Z,36.32
2023-05-15T13:14:38.482Z,36.24
2023-05-15T13:17:10.172Z,36.06
2023-05-15T13:19:41.718Z,36.19
2023-05-15T13:22:12.184Z,35.46
2023-05-15T13:24:46.281Z,36.33
2023-05-15T13:27:34.535Z,35.39
2023-05-15T13:30:09.065Z,34.62
2023-05-15T13:32:38.823Z,33.36
2023-05-15T13:35:13.321Z,34.41
2023-05-15T13:37:43.481Z,34.39
2023-05-15T13:40:15.576Z,33.63
2023-05-15T13:42:46.738Z,33.10
2023-05-15T13:45:20.160Z,32.66
2023-05-15T13:47:53.771Z,32.35
2023-05-15T13:50:32.138Z,33.69
2023-05-15T13:53:01.540Z,34.64
2023-05-15T13:55:35.706Z,35.81
2023-05-15T13:58:06.352Z,36.02
2023-05-15T14:00:40.445Z,36.23
2023-05-15T14:03:18.416Z,36.06
2023-05-15T14:05:49.208Z,36.08
2023-05-15T14:08:20.339Z,35.83
2023-05-15T14:10:51.475Z,36.81
2023-05-15T14:13:23.831Z,36.34
2023-05-15T14:15:59.753Z,34.60
2023-05-15T14:18:31.806Z,33.73
2023-05-15T14:21:02.714Z,34.29
2023-05-15T14:23:34.638Z,34.06
2023-05-15T14:26:06.820Z,34.17
2023-05-15T14:28:36.629Z,33.71
2023-05-15T14:31:22.075Z,33.56
2023-05-15T14:33:54.433Z,35.12
2023-05-15T14:36:28.658Z,36.16
2023-05-15T14:39:00.423Z,37.08
2023-05-15T14:41:31.219Z,37.19
2023-05-15T14:44:02.258Z,36.96
2023-05-15T14:46:34.136Z,38.80
2023-05-15T14:49:13.225Z,39.37
2023-05-15T14:51:45.927Z,40.76
2023-05-15T14:54:17.240Z,42.04
2023-05-15T14:56:54.393Z,43.17
2023-05-15T14:59:33.621Z,44.30
2023-05-15T15:02:07.224Z,44.63
2023-05-15T15:04:38.776Z,44.87
2023-05-15T15:07:14.277Z,45.28
2023-05-15T15:09:45.831Z,46.48
2023-05-15T15:12:39.081Z,46.62
2023-05-15T15:15:15.084Z,46.56
2023-05-15T15:18:17.328Z,47.64
2023-05-15T15:20:47.659Z,47.86
2023-05-15T15:23:23.142Z,48.10
2023-05-15T15:25:59.499Z,48.42
2023-05-15T15:28:41.866Z,48.53
2023-05-15T15:31:13.039Z,47.73
2023-05-15T15:33:47.752Z,45.64
2023-05-15T15:36:17.830Z,44.18
2023-05-15T15:39:08.646Z,44.34
2023-05-15T15:41:45.651Z,44.54
2023-05-15T15:44:16.891Z,45.50
2023-05-15T15:47:03.463Z,45.83
2023-05-15T15:49:37.851Z,46.51
2023-05-15T15:52:14.101Z,47.20
2023-05-15T15:54:47.379Z,48.06
2023-05-15T15:57:35.357Z,49.35
2023-05-15T16:00:11.376Z,50.70
2023-05-15T16:02:44.369Z,51.52
2023-05-15T16:05:30.273Z,52.52
2023-05-15T16:08:02.230Z,52.84
2023-05-15T16:10:33.110Z,53.50
2023-05-15T16:13:12.736Z,54.21
2023-05-15T16:15:41.861Z,55.50
2023-05-15T16:18:28.844Z,56.04
2023-05-15T16:21:09.446Z,56.36
2023-05-15T16:23:40.563Z,56.76
2023-05-15T16:26:15.673Z,57.59
2023-05-15T16:28:47.783Z,58.10
2023-05-15T16:31:21.354Z,58.29
2023-05-15T16:33:53.181Z,59.12
2023-05-15T16:36:32.363Z,59.80
2023-05-15T16:39:15.576Z,60.26
2023-05-15T16:41:50.615Z,60.60
2023-05-15T16:44:21.803Z,60.77
2023-05-15T16:46:54.151Z,61.43
2023-05-15T16:49:31.558Z,61.25
2023-05-15T16:52:04.794Z,61.77
2023-05-15T16:54:42.373Z,62.46
2023-05-15T16:57:14.586Z,62.57
2023-05-15T16:59:45.367Z,63.08
2023-05-15T17:02:18.743Z,63.45
2023-05-15T17:04:48.333Z,63.23
2023-05-15T17:07:23.239Z,63.33
2023-05-15T17:09:56.001Z,63.15
2023-05-15T17:12:31.987Z,63.49
2023-05-15T17:15:13.932Z,63.29
2023-05-15T17:17:46.783Z,63.86
2023-05-15T17:20:20.448Z,63.77
2023-05-15T17:22:57.153Z,63.69
2023-05-15T17:25:36.150Z,64.69
2023-05-15T17:28:08.051Z,65.10
2023-05-15T17:30:38.857Z,64.90
2023-05-15T17:33:12.434Z,65.19
2023-05-15T17:35:42.283Z,66.03
2023-05-15T17:38:13.385Z,65.64
2023-05-15T17:40:44.949Z,65.81
2023-05-15T17:43:15.141Z,65.49
2023-05-15T17:45:46.408Z,65.29
2023-05-15T17:48:17.730Z,65.61
2023-05-15T17:50:47.935Z,65.16
2023-05-15T17:53:31.602Z,65.16
2023-05-15T17:56:03.591Z,65.63
2023-05-15T17:58:33.236Z,65.54
2023-05-15T18:01:11.214Z,65.42
2023-05-15T18:03:46.200Z,65.77
2023-05-15T18:06:15.890Z,65.34
2023-05-15T18:08:49.209Z,65.75
2023-05-15T18:11:22.381Z,66.21
2023-05-15T18:13:58.411Z,66.48
2023-05-15T18:16:31.447Z,66.81
2023-05-15T18:19:06.279Z,66.76
2023-05-15T18:21:37.819Z,66.45
2023-05-15T18:24:15.240Z,66.91
2023-05-15T18:26:56.835Z,67.33
2023-05-15T18:29:31.126Z,67.05
2023-05-15T18:32:05.599Z,67.33
2023-05-15T18:34:37.857Z,68.11
2023-05-15T18:37:07.583Z,67.97
2023-05-15T18:39:42.332Z,68.37
2023-05-15T18:42:18.629Z,68.52
2023-05-15T18:44:49.593Z,68.42
2023-05-15T18:47:26.403Z,68.48
2023-05-15T18:49:57.688Z,68.89
2023-05-15T18:52:29.771Z,69.50
2023-05-15T18:55:01.709Z,69.53
2023-05-15T18:57:31.373Z,70.38
2023-05-15T19:00:00.991Z,70.73
2023-05-15T19:02:33.642Z,70.95
2023-05-15T19:05:07.279Z,70.91
2023-05-15T19:07:37.284Z,71.59
2023-05-15T19:10:20.410Z,71.43
2023-05-15T19:12:49.498Z,71.96
2023-05-15T19:15:19.812Z,72.28
2023-05-15T19:17:49.975Z,72.77
2023-05-15T19:20:25.063Z,73.19
2023-05-15T19:22:57.622Z,73.40
2023-05-15T19:25:31.686Z,74.07
2023-05-15T19:28:04.874Z,74.10
2023-05-15T19:30:36.225Z,74.54
2023-05-15T19:33:06.437Z,74.89
2023-05-15T19:35:42.320Z,75.19
2023-05-15T19:38:13.391Z,75.06
2023-05-15T19:40:49.349Z,75.60
2023-05-15T19:43:22.913Z,75.94
2023-05-15T19:45:52.411Z,76.01
2023-05-15T19:48:22.335Z,75.60
2023-05-15T19:50:56.147Z,76.01
2023-05-15T19:53:31.206Z,76.53
2023-05-15T19:56:01.671Z,77.19
2023-05-15T19:58:32.906Z,77.35
2023-05-15T20:01:07.265Z,77.29
2023-05-15T20:03:37.262Z,77.73
2023-05-15T20:06:09.941Z,78.13
2023-05-15T20:08:43.625Z,78.35
2023-05-15T20:11:16.384Z,79.41
2023-05-15T20:13:48.962Z,79.88
2023-05-15T20:16:27.580Z,79.59
2023-05-15T20:19:03.400Z,80.41
2023-05-15T20:21:36.884Z,80.68
2023-05-15T20:24:19.363Z,81.18
2023-05-15T20:26:53.274Z,81.47
2023-05-15T20:29:32.657Z,81.81
2023-05-15T20:32:08.863Z,81.99
2023-05-15T20:34:43.253Z,82.38
2023-05-15T20:37:17.307Z,82.50
2023-05-15T20:39:53.374Z,82.88
2023-05-15T20:42:29.768Z,82.64
2023-05-15T20:45:00.493Z,83.28
2023-05-15T20:47:30.030Z,83.30
2023-05-15T20:49:59.493Z,84.05
2023-05-15T20:52:31.907Z,84.42
2023-05-15T20:55:01.845Z,84.48
2023-05-15T20:57:38.230Z,84.97
2023-05-15T21:00:10.472Z,85.12
2023-05-15T21:02:41.283Z,84.98
2023-05-15T21:05:12.910Z,85.33
2023-05-15T21:07:43.593Z,85.21
2023-05-15T21:10:17.525Z,85.57
2023-05-15T21:12:51.920Z,85.78
2023-05-15T21:15:27.125Z,85.86
2023-05-15T21:17:58.198Z,85.82
2023-05-15T21:20:31.944Z,85.54
2023-05-15T21:23:03.755Z,86.13
2023-05-15T21:25:37.152Z,86.65
2023-05-15T21:28:07.941Z,86.06
2023-05-15T21:30:37.780Z,85.99
2023-05-15T21:33:14.737Z,85.94
2023-05-15T21:35:44.523Z,86.34
2023-05-15T21:38:20.491Z,86.16
2023-05-15T21:40:51.209Z,86.45
2023-05-15T21:43:26.061Z,86.44
2023-05-15T21:45:59.190Z,86.06
2023-05-15T21:48:31.945Z,86.15
2023-05-15T21:51:02.171Z,86.58
2023-05-15T21:53:36.401Z,86.51
2023-05-15T21:56:09.563Z,86.44
2023-05-15T21:58:41.543Z,86.51
2023-05-15T22:01:12.394Z,86.54
2023-05-15T22:03:41.686Z,86.67
2023-05-15T22:06:14.300Z,86.58
2023-05-15T22:08:44.273Z,86.56
2023-05-15T22:11:18.389Z,86.84
2023-05-15T22:13:49.468Z,86.43
2023-05-15T22:16:26.904Z,86.31
2023-05-15T22:18:57.849Z,86.53
2023-05-15T22:21:29.408Z,86.66
2023-05-15T22:24:00.659Z,86.43
2023-05-15T22:26:34.112Z,86.31
2023-05-15T22:29:07.336Z,85.97
2023-05-15T22:31:41.992Z,85.91
2023-05-15T22:34:12.968Z,85.93
2023-05-15T22:36:46.046Z,85.98
2023-05-15T22:39:18.178Z,85.95
2023-05-15T22:41:48.443Z,85.69
2023-05-15T22:44:19.529Z,85.64
2023-05-15T22:46:54.392Z,85.61
2023-05-15T22:49:33.871Z,85.74
2023-05-15T22:52:04.630Z,85.76
2023-05-15T22:54:35.290Z,85.67
2023-05-15T22:57:06.109Z,85.81
2023-05-15T22:59:41.259Z,85.44
2023-05-15T23:02:10.928Z,85.51
2023-05-15T23:04:45.957Z,85.77
2023-05-15T23:07:17.643Z,85.86
2023-05-15T23:09:51.414Z,86.09
2023-05-15T23:12:22.204Z,85.44
2023-05-15T23:14:54.745Z,85.10
2023-05-15T23:17:27.108Z,85.16
2023-05-15T23:20:01.562Z,85.26
2023-05-15T23:22:32.454Z,85.71
2023-05-15T23:25:04.377Z,85.28
2023-05-15T23:27:34.416Z,85.33
2023-05-15T23:30:06.998Z,84.69
2023-05-15T23:32:39.586Z,85.81
2023-05-15T23:35:11.279Z,85.13
2023-05-15T23:37:40.528Z,84.71
2023-05-15T23:40:12.135Z,85.12
2023-05-15T23:42:41.177Z,84.84
2023-05-15T23:45:19.684Z,84.28
2023-05-15T23:47:49.456Z,84.32
2023-05-15T23:50:21.965Z,83.28
2023-05-15T23:52:51.847Z,83.20
2023-05-15T23:55:23.020Z,83.49
2023-05-15T23:57:53.442Z,83.16
